createdAt,value
2022-11-17T00:01:29.753Z,9.50
2022-11-17T00:04:00.342Z,10.10
2022-11-17T00:06:27.486Z,9.52
2022-11-17T00:08:54.772Z,10.57
2022-11-17T00:11:24.407Z,9.82
2022-11-17T00:14:10.705Z,7.97
2022-11-17T00:20:02.591Z,9.18
2022-11-17T00:32:07.564Z,9.00
2022-11-17T00:36:04.004Z,8.90
2022-11-17T00:39:38.714Z,8.90
2022-11-17T00:46:11.025Z,9.00
2022-11-17T00:49:59.426Z,8.60
2022-11-17T00:52:39.222Z,9.30
2022-11-17T00:55:56.379Z,8.95
2022-11-17T01:02:29.106Z,9.27
2022-11-17T01:04:43.884Z,9.90
2022-11-17T01:07:41.183Z,9.38
2022-11-17T01:17:28.325Z,8.43
2022-11-17T01:23:26.580Z,9.63
2022-11-17T01:29:54.817Z,10.07
2022-11-17T01:35:50.721Z,10.68
2022-11-17T01:38:40.888Z,9.77
2022-11-17T01:41:59.632Z,10.85
2022-11-17T01:45:01.114Z,9.90
2022-11-17T01:48:18.625Z,8.07
2022-11-17T01:51:47.391Z,8.93
2022-11-17T01:55:00.468Z,7.68
2022-11-17T01:58:20.754Z,7.70
2022-11-17T02:02:57.325Z,7.07
2022-11-17T02:06:46.440Z,7.30
2022-11-17T02:12:17.391Z,6.47
2022-11-17T02:15:13.120Z,7.05
2022-11-17T02:18:09.797Z,6.30
2022-11-17T02:24:48.723Z,6.35
2022-11-17T02:31:59.804Z,4.50
2022-11-17T02:34:57.004Z,4.78
2022-11-17T02:38:20.737Z,4.68
2022-11-17T02:41:56.395Z,4.72
2022-11-17T02:45:07.377Z,4.82
2022-11-17T02:47:52.508Z,4.50
2022-11-17T02:53:17.682Z,4.63
2022-11-17T02:59:10.414Z,5.05
2022-11-17T03:05:48.779Z,4.43
2022-11-17T03:19:19.297Z,4.68
2022-11-17T03:26:56.379Z,5.78
2022-11-17T03:32:07.240Z,5.70
2022-11-17T03:34:36.534Z,6.15
2022-11-17T03:37:05.525Z,6.30
2022-11-17T03:39:34.483Z,6.43
2022-11-17T03:42:04.792Z,6.82
2022-11-17T03:44:32.831Z,5.57
2022-11-17T03:49:51.607Z,5.82
2022-11-17T03:52:18.739Z,5.90
2022-11-17T03:54:45.700Z,5.38
2022-11-17T03:57:41.439Z,6.00
2022-11-17T04:00:12.786Z,4.53
2022-11-17T04:02:44.043Z,5.10
2022-11-17T04:05:11.539Z,4.78
2022-11-17T04:07:42.801Z,5.55
2022-11-17T04:10:14.548Z,5.50
2022-11-17T04:13:17.223Z,5.22
2022-11-17T04:15:59.515Z,5.50
2022-11-17T04:18:27.116Z,4.75
2022-11-17T04:20:55.711Z,5.10
2022-11-17T04:23:23.209Z,5.95
2022-11-17T04:26:10.611Z,5.85
2022-11-17T04:28:42.815Z,5.85
2022-11-17T04:31:18.086Z,5.57
2022-11-17T04:33:45.843Z,5.00
2022-11-17T04:36:14.140Z,5.35
2022-11-17T04:38:44.983Z,5.10
2022-11-17T04:41:31.408Z,4.57
2022-11-17T04:43:58.482Z,5.00
2022-11-17T04:46:25.787Z,4.85
2022-11-17T04:48:53.999Z,4.70
2022-11-17T04:51:21.206Z,5.03
2022-11-17T04:53:48.227Z,4.50
2022-11-17T04:56:15.467Z,4.47
2022-11-17T04:58:42.578Z,4.97
2022-11-17T05:01:12.625Z,4.65
2022-11-17T05:03:43.393Z,4.68
2022-11-17T05:06:11.567Z,4.97
2022-11-17T05:08:38.899Z,4.97
2022-11-17T05:11:25.558Z,4.45
2022-11-17T05:13:52.619Z,4.78
2022-11-17T05:16:38.431Z,4.65
2022-11-17T05:19:06.481Z,5.30
2022-11-17T05:21:33.469Z,4.90
2022-11-17T05:24:00.475Z,4.80
2022-11-17T05:26:28.866Z,4.97
2022-11-17T05:28:56.935Z,4.80
2022-11-17T05:31:24.571Z,4.95
2022-11-17T05:33:51.632Z,3.80
2022-11-17T05:36:19.852Z,4.95
2022-11-17T05:38:47.523Z,4.60
2022-11-17T05:41:15.496Z,5.03
2022-11-17T05:43:42.507Z,4.97
2022-11-17T05:46:09.494Z,4.60
2022-11-17T05:48:36.524Z,4.38
2022-11-17T05:51:03.504Z,4.65
2022-11-17T05:53:30.634Z,5.88
2022-11-17T05:56:08.577Z,4.35
2022-11-17T05:58:36.482Z,5.30
2022-11-17T06:01:05.974Z,5.57
2022-11-17T06:03:37.003Z,4.50
2022-11-17T06:06:04.289Z,4.63
2022-11-17T06:08:31.309Z,5.05
2022-11-17T06:10:58.307Z,5.47
2022-11-17T06:13:28.937Z,5.15
2022-11-17T06:15:56.209Z,4.93
2022-11-17T06:18:25.363Z,5.30
2022-11-17T06:20:53.802Z,4.78
2022-11-17T06:23:21.846Z,5.82
2022-11-17T06:25:48.930Z,6.18
2022-11-17T06:28:17.339Z,5.70
2022-11-17T06:30:44.498Z,6.15
2022-11-17T06:33:13.677Z,6.70
2022-11-17T06:35:41.036Z,7.63
2022-11-17T06:38:08.027Z,7.30
2022-11-17T06:40:34.977Z,8.10
2022-11-17T06:43:08.485Z,9.10
2022-11-17T06:45:43.048Z,10.37
2022-11-17T06:48:10.503Z,14.23
2022-11-17T06:50:37.463Z,12.23
2022-11-17T06:53:06.284Z,12.90
2022-11-17T06:55:33.495Z,10.30
2022-11-17T06:58:11.665Z,12.23
2022-11-17T07:00:38.848Z,11.43
2022-11-17T07:03:07.096Z,12.48
2022-11-17T07:05:34.765Z,11.75
2022-11-17T07:08:08.185Z,10.50
2022-11-17T07:10:37.049Z,8.98
2022-11-17T07:13:04.184Z,8.70
2022-11-17T07:15:32.330Z,8.10
2022-11-17T07:17:59.434Z,7.53
2022-11-17T07:20:27.681Z,7.88
2022-11-17T07:22:59.851Z,6.55
2022-11-17T07:25:26.928Z,6.78
2022-11-17T07:28:03.312Z,6.60
2022-11-17T07:30:30.456Z,6.90
2022-11-17T07:32:59.582Z,6.32
2022-11-17T07:35:27.513Z,7.10
2022-11-17T07:37:59.409Z,5.93
2022-11-17T07:40:26.388Z,5.53
2022-11-17T07:42:55.520Z,5.03
2022-11-17T07:45:25.160Z,5.50
2022-11-17T07:47:57.550Z,4.85
2022-11-17T07:50:25.232Z,5.00
2022-11-17T07:52:53.526Z,5.35
2022-11-17T07:55:22.845Z,5.47
2022-11-17T07:58:00.202Z,4.80
2022-11-17T08:00:28.690Z,4.15
2022-11-17T08:02:55.935Z,4.03
2022-11-17T08:05:22.943Z,4.28
2022-11-17T08:07:56.532Z,4.70
2022-11-17T08:10:23.782Z,4.55
2022-11-17T08:12:52.054Z,4.43
2022-11-17T08:15:19.747Z,5.10
2022-11-17T08:17:51.044Z,4.63
2022-11-17T08:20:18.133Z,6.30
2022-11-17T08:22:46.489Z,6.20
2022-11-17T08:25:14.151Z,6.75
2022-11-17T08:27:41.862Z,4.93
2022-11-17T08:30:09.577Z,5.38
2022-11-17T08:32:36.904Z,5.45
2022-11-17T08:35:05.867Z,5.88
2022-11-17T08:37:32.859Z,5.50
2022-11-17T08:39:59.871Z,6.35
2022-11-17T08:42:27.063Z,6.03
2022-11-17T08:44:54.104Z,5.80
2022-11-17T08:47:21.243Z,5.32
2022-11-17T08:49:48.723Z,4.28
2022-11-17T08:52:15.944Z,4.78
2022-11-17T08:54:43.118Z,4.93
2022-11-17T08:57:10.234Z,4.20
2022-11-17T08:59:38.353Z,5.00
2022-11-17T09:02:09.824Z,5.53
2022-11-17T09:04:36.849Z,4.53
2022-11-17T09:07:04.027Z,6.10
2022-11-17T09:09:31.898Z,6.60
2022-11-17T09:11:59.414Z,6.10
2022-11-17T09:14:26.839Z,5.93
2022-11-17T09:16:53.925Z,5.70
2022-11-17T09:19:20.997Z,6.32
2022-11-17T09:21:51.465Z,5.85
2022-11-17T09:24:23.619Z,5.55
2022-11-17T09:26:50.747Z,5.65
2022-11-17T09:29:17.939Z,5.13
2022-11-17T09:31:45.089Z,5.60
2022-11-17T09:34:12.266Z,6.15
2022-11-17T09:36:39.420Z,5.13
2022-11-17T09:39:06.715Z,6.43
2022-11-17T09:41:36.089Z,5.82
2022-11-17T09:44:16.142Z,4.88
2022-11-17T09:46:50.746Z,5.45
2022-11-17T09:49:42.680Z,6.10
2022-11-17T09:52:20.008Z,5.82
2022-11-17T09:54:56.183Z,5.65
2022-11-17T09:57:52.097Z,6.60
2022-11-17T10:00:20.795Z,4.90
2022-11-17T10:02:48.029Z,6.60
2022-11-17T10:05:29.405Z,5.45
2022-11-17T10:08:00.137Z,5.68
2022-11-17T10:10:54.579Z,6.45
2022-11-17T10:13:28.467Z,5.07
2022-11-17T10:16:03.758Z,4.97
2022-11-17T10:18:38.575Z,5.30
2022-11-17T10:21:06.883Z,5.13
2022-11-17T10:23:45.883Z,5.00
2022-11-17T10:26:14.721Z,5.22
2022-11-17T10:28:41.808Z,4.97
2022-11-17T10:31:16.482Z,5.40
2022-11-17T10:33:44.505Z,5.47
2022-11-17T10:36:21.109Z,5.65
2022-11-17T10:38:49.997Z,5.55
2022-11-17T10:41:18.861Z,5.80
2022-11-17T10:43:57.565Z,6.63
2022-11-17T10:46:24.822Z,7.43
2022-11-17T10:48:55.966Z,7.68
2022-11-17T10:51:27.235Z,6.63
2022-11-17T10:54:17.440Z,6.72
2022-11-17T10:56:46.147Z,7.20
2022-11-17T10:59:20.015Z,6.93
2022-11-17T11:01:49.995Z,7.22
2022-11-17T11:04:30.697Z,7.43
2022-11-17T11:07:06.805Z,7.78
2022-11-17T11:09:33.876Z,7.25
2022-11-17T11:13:09.560Z,6.97
2022-11-17T11:16:32.035Z,8.00
2022-11-17T11:27:44.883Z,8.38
2022-11-17T11:30:18.589Z,10.43
2022-11-17T11:32:58.087Z,9.18
2022-11-17T11:35:31.513Z,8.07
2022-11-17T12:07:06.657Z,8.15
2022-11-17T12:24:34.095Z,8.82
2022-11-17T12:27:47.676Z,9.20
2022-11-17T12:39:04.079Z,9.30
2022-11-17T12:58:21.878Z,9.95
2022-11-17T13:01:20.561Z,10.05
2022-11-17T13:04:48.952Z,11.05
2022-11-17T13:15:14.921Z,9.65
2022-11-17T13:18:06.024Z,10.32
2022-11-17T13:28:24.752Z,10.43
2022-11-17T13:56:48.277Z,9.45
2022-11-17T14:03:32.005Z,10.02
2022-11-17T14:07:47.776Z,12.27
2022-11-17T14:29:42.665Z,20.88
2022-11-17T14:32:58.261Z,13.70
2022-11-17T14:36:23.279Z,20.60
2022-11-17T15:03:57.005Z,12.93
2022-11-17T15:06:27.303Z,14.82
2022-11-17T15:09:01.703Z,14.90
2022-11-17T15:11:30.541Z,13.80
2022-11-17T15:14:02.755Z,15.57
2022-11-17T15:16:29.791Z,14.25
2022-11-17T15:18:56.726Z,13.77
2022-11-17T15:21:23.681Z,15.45
2022-11-17T15:23:50.655Z,14.50
2022-11-17T15:26:18.987Z,14.30
2022-11-17T15:28:46.074Z,15.15
2022-11-17T15:31:14.934Z,15.98
2022-11-17T15:33:42.381Z,14.77
2022-11-17T15:36:10.927Z,16.83
2022-11-17T15:38:38.288Z,15.07
2022-11-17T15:41:05.799Z,15.95
2022-11-17T15:43:35.203Z,16.83
2022-11-17T15:46:06.160Z,16.08
2022-11-17T15:48:33.642Z,16.92
2022-11-17T15:51:02.942Z,15.38
2022-11-17T15:53:33.351Z,16.60
2022-11-17T15:56:07.942Z,16.38
2022-11-17T15:58:35.270Z,16.77
2022-11-17T16:01:23.512Z,19.15
2022-11-17T16:03:51.078Z,15.10
2022-11-17T16:06:18.091Z,15.23
2022-11-17T16:08:45.009Z,17.13
2022-11-17T16:11:12.162Z,15.18
2022-11-17T16:13:39.067Z,16.55
2022-11-17T16:16:06.853Z,15.88
2022-11-17T16:18:37.373Z,16.95
2022-11-17T16:21:05.481Z,16.17
2022-11-17T16:23:40.592Z,15.02
2022-11-17T16:26:09.265Z,14.45
2022-11-17T16:28:36.717Z,18.05
2022-11-17T16:31:20.420Z,14.57
2022-11-17T16:33:55.062Z,17.80
2022-11-17T16:36:28.080Z,16.73
2022-11-17T16:39:01.636Z,16.83
2022-11-17T16:41:31.687Z,16.85
2022-11-17T16:43:58.954Z,16.15
2022-11-17T16:46:32.123Z,30.15
2022-11-17T16:49:02.065Z,20.48
2022-11-17T16:51:29.052Z,22.70
2022-11-17T16:53:57.498Z,20.17
2022-11-17T16:56:24.640Z,19.98
2022-11-17T16:58:51.873Z,21.05
2022-11-17T17:01:24.130Z,20.42
2022-11-17T17:03:58.696Z,19.60
2022-11-17T17:06:27.966Z,20.75
2022-11-17T17:08:56.038Z,20.38
2022-11-17T17:11:23.185Z,18.70
2022-11-17T17:13:50.289Z,19.33
2022-11-17T17:16:18.585Z,20.48
2022-11-17T17:18:45.697Z,16.60
2022-11-17T17:21:14.557Z,19.25
2022-11-17T17:23:41.725Z,20.30
2022-11-17T17:26:12.027Z,20.45
2022-11-17T17:28:49.220Z,18.25
2022-11-17T17:31:21.364Z,19.73
2022-11-17T17:33:50.316Z,21.33
2022-11-17T17:36:21.929Z,18.80
2022-11-17T17:38:55.024Z,20.52
2022-11-17T17:41:23.797Z,18.63
2022-11-17T17:43:58.310Z,18.67
2022-11-17T17:46:25.618Z,20.08
2022-11-17T17:48:52.673Z,21.55
2022-11-17T17:51:20.803Z,21.10
2022-11-17T17:53:50.444Z,21.77
2022-11-17T17:56:18.874Z,20.02
2022-11-17T17:58:48.025Z,21.75
2022-11-17T18:01:15.919Z,24.33
2022-11-17T18:03:45.649Z,21.48
2022-11-17T18:06:13.025Z,22.33
2022-11-17T18:08:39.965Z,20.08
2022-11-17T18:11:08.550Z,22.02
2022-11-17T18:13:39.021Z,22.50
2022-11-17T18:16:07.216Z,22.35
2022-11-17T18:18:34.715Z,22.35
2022-11-17T18:21:03.720Z,24.17
2022-11-17T18:23:31.056Z,24.00
2022-11-17T18:26:00.233Z,22.73
2022-11-17T18:28:27.145Z,21.73
2022-11-17T18:30:54.129Z,23.48
2022-11-17T18:33:21.212Z,22.38
2022-11-17T18:35:48.412Z,21.48
2022-11-17T18:38:16.299Z,21.75
2022-11-17T18:40:43.687Z,20.58
2022-11-17T18:43:10.703Z,20.75
2022-11-17T18:45:38.448Z,22.30
2022-11-17T18:48:06.389Z,21.27
2022-11-17T18:50:33.537Z,23.27
2022-11-17T18:53:00.552Z,23.08
2022-11-17T18:55:27.550Z,21.45
2022-11-17T18:57:54.614Z,21.08
2022-11-17T19:00:21.708Z,21.23
2022-11-17T19:02:48.748Z,21.83
2022-11-17T19:05:15.830Z,21.58
2022-11-17T19:07:42.990Z,23.08
2022-11-17T19:10:10.302Z,22.67
2022-11-17T19:12:37.359Z,23.17
2022-11-17T19:15:07.337Z,22.65
2022-11-17T19:17:35.113Z,23.80
2022-11-17T19:20:02.304Z,23.70
2022-11-17T19:22:29.753Z,23.10
2022-11-17T19:24:56.814Z,23.65
2022-11-17T19:27:26.148Z,22.30
2022-11-17T19:30:00.511Z,24.13
2022-11-17T19:34:57.833Z,22.90
2022-11-17T19:37:30.698Z,23.13
2022-11-17T19:39:57.699Z,20.75
2022-11-17T19:42:24.729Z,22.02
2022-11-17T19:44:52.745Z,23.65
2022-11-17T19:47:22.616Z,23.40
2022-11-17T19:49:49.671Z,23.70
2022-11-17T19:52:19.482Z,23.35
2022-11-17T19:54:46.425Z,24.98
2022-11-17T19:57:13.374Z,24.92
2022-11-17T19:59:40.428Z,24.98
2022-11-17T20:02:13.100Z,25.75
2022-11-17T20:04:40.202Z,24.17
2022-11-17T20:07:13.779Z,23.58
2022-11-17T20:09:40.942Z,22.65
2022-11-17T20:12:08.873Z,25.17
2022-11-17T20:14:35.809Z,23.88
2022-11-17T20:17:06.035Z,21.70
2022-11-17T20:19:33.892Z,23.40
2022-11-17T20:22:00.849Z,23.90
2022-11-17T20:24:30.457Z,23.65
2022-11-17T20:26:57.433Z,24.00
2022-11-17T20:29:24.335Z,23.98
2022-11-17T20:31:51.470Z,24.38
2022-11-17T20:34:25.872Z,22.77
2022-11-17T20:36:52.861Z,24.23
2022-11-17T20:39:19.931Z,22.70
2022-11-17T20:41:47.989Z,23.77
2022-11-17T20:44:24.197Z,24.48
2022-11-17T20:46:54.848Z,24.38
2022-11-17T20:49:30.763Z,24.15
2022-11-17T20:51:57.734Z,23.48
2022-11-17T20:54:24.823Z,24.52
2022-11-17T20:56:59.364Z,24.40
2022-11-17T20:59:26.513Z,23.55
2022-11-17T21:01:53.556Z,24.58
2022-11-17T21:04:20.506Z,23.83
2022-11-17T21:06:47.508Z,23.67
2022-11-17T21:09:14.826Z,24.17
2022-11-17T21:11:57.091Z,26.40
2022-11-17T21:14:27.935Z,25.35
2022-11-17T21:16:55.944Z,25.52
2022-11-17T21:19:23.241Z,25.08
2022-11-17T21:21:51.546Z,25.10
2022-11-17T21:24:18.503Z,25.02
2022-11-17T21:26:45.702Z,25.75
2022-11-17T21:29:12.792Z,24.30
2022-11-17T21:31:39.785Z,24.02
2022-11-17T21:34:07.061Z,24.88
2022-11-17T21:36:34.510Z,23.58
2022-11-17T21:39:01.567Z,26.55
2022-11-17T21:41:29.821Z,26.40
2022-11-17T21:44:00.483Z,26.55
2022-11-17T21:46:28.782Z,25.55
2022-11-17T21:48:58.792Z,25.73
2022-11-17T21:51:35.089Z,23.90
2022-11-17T21:54:03.100Z,25.45
2022-11-17T21:56:31.937Z,27.08
2022-11-17T21:59:04.556Z,24.27
2022-11-17T22:01:32.012Z,27.52
2022-11-17T22:03:59.085Z,26.85
2022-11-17T22:06:27.230Z,28.13
2022-11-17T22:08:54.909Z,26.92
2022-11-17T22:11:36.152Z,28.80
2022-11-17T22:14:03.805Z,28.27
2022-11-17T22:16:31.788Z,26.20
2022-11-17T22:18:58.766Z,24.65
2022-11-17T22:21:25.885Z,27.98
2022-11-17T22:23:52.984Z,32.60
2022-11-17T22:26:20.124Z,29.92
2022-11-17T22:28:53.769Z,33.75
2022-11-17T22:31:20.946Z,28.52
2022-11-17T22:33:48.579Z,31.65
2022-11-17T22:36:15.644Z,31.52
2022-11-17T22:38:43.704Z,31.00
2022-11-17T22:41:11.723Z,33.03
2022-11-17T22:43:38.626Z,32.42
2022-11-17T22:46:08.143Z,32.80
2022-11-17T22:48:36.257Z,31.90
2022-11-17T22:51:04.919Z,30.42
2022-11-17T22:53:32.653Z,32.22
2022-11-17T22:56:07.531Z,29.52
2022-11-17T22:58:34.671Z,31.55
2022-11-17T23:01:05.578Z,29.55
2022-11-17T23:03:33.908Z,30.80
2022-11-17T23:06:07.290Z,29.33
2022-11-17T23:08:34.397Z,29.57
2022-11-17T23:13:53.098Z,29.15
2022-11-17T23:16:20.151Z,28.80
2022-11-17T23:18:47.183Z,27.25
2022-11-17T23:21:15.279Z,27.42
2022-11-17T23:23:42.241Z,29.75
2022-11-17T23:26:10.735Z,27.73
2022-11-17T23:28:38.532Z,25.80
2022-11-17T23:31:06.843Z,29.70
2022-11-17T23:33:41.231Z,27.90
2022-11-17T23:36:13.173Z,27.98
2022-11-17T23:38:40.222Z,28.50
2022-11-17T23:41:08.638Z,30.95
2022-11-17T23:43:36.843Z,29.67
2022-11-17T23:46:05.110Z,29.27
2022-11-17T23:48:32.071Z,29.88
2022-11-17T23:50:59.044Z,28.13
2022-11-17T23:53:26.040Z,29.98
2022-11-17T23:55:56.740Z,30.90
2022-11-17T23:58:24.042Z,30.58
